Wind From: 13-12-2017 10:08 Until: 14-12-2017 06:00 warning for: Wind Level: Yellow info button

Although rather usual in this region, locally or potentially dangerous phenomena are expected. (such as local winds, summer thunderstorms, rising streams or high waves) Be aware and pay attention to the latest weather updates, especially if you carry out activities exposed to weather or close to a stream or shoreline. 


Meteo18 Weather Cam more information Meteo18 Weather Cam


Thunder radar more information blitzortung!


Rain radar more information rain snow radar


Visit our other weather sites:

Template documentation
and downloads

And another site



Weather Underground History page Text

Daily Summary for August 23, 2017 Units:  English    Metric   Both
« Previous Day
Next Day »
Daily Weekly Monthly Yearly Custom
  High: Low: Average:
Temperature: 80.1 °F 63.3 °F 71.4 °F
Dew Point: 66 °F 57.9 °F 62.8 °F
Humidity: 92 % 60 % 75 %
Wind Speed: 12 mph 0 mph 3.6 mph
Wind Gust: 18 mph - -
Wind:- - West
Pressure: 30.1 in 30 in -
Precipitation: 0 in    
Historical Graphs
 
 
Tabular Data for August 23, 2017
Time Temperature Dew Point Pressure Wind Wind Speed Wind Gust Humidity Rainfall Rate (Hourly)
00:02 70.7 °F 61.2 °F 30 in North 1 mph 1 mph 72 % 0 in
00:07 70.5 °F 61.5 °F 30 in North 2 mph 2 mph 73 % 0 in
00:12 70.5 °F 61.5 °F 30 in North 1 mph 2 mph 73 % 0 in
00:17 70.3 °F 61.3 °F 30 in NNW 1 mph 3 mph 73 % 0 in
00:22 70.3 °F 61.3 °F 30 in Calm   3 mph 73 % 0 in
00:27 70.3 °F 61.3 °F 30 in Calm   3 mph 73 % 0 in
00:32 70.5 °F 61 °F 30 in Calm   3 mph 72 % 0 in
00:37 70.5 °F 61 °F 30 in North 1 mph 3 mph 72 % 0 in
00:42 70.3 °F 61.3 °F 30 in Calm   3 mph 73 % 0 in
00:52 70.2 °F 61.2 °F 30 in North 1 mph 2 mph 73 % 0 in
00:57 70 °F 61 °F 30 in North 2 mph 3 mph 73 % 0 in
01:02 69.8 °F 61.2 °F 30 in Calm   3 mph 74 % 0 in
01:12 69.1 °F 60.8 °F 30 in NNW 2 mph 2 mph 75 % 0 in
01:22 68.5 °F 60.6 °F 30 in North 1 mph 2 mph 76 % 0 in
01:32 68.5 °F 60.6 °F 30 in Calm   2 mph 76 % 0 in
01:37 68.5 °F 60.3 °F 30 in Calm   2 mph 75 % 0 in
01:42 68.4 °F 60.4 °F 30 in NW 1 mph 2 mph 76 % 0 in
01:52 67.5 °F 60.4 °F 30 in NNW 1 mph 2 mph 78 % 0 in
02:02 67.3 °F 60.3 °F 30 in Calm   2 mph 78 % 0 in
02:12 66.6 °F 60.3 °F 30 in NW 1 mph 2 mph 80 % 0 in
02:17 66.6 °F 60.3 °F 30 in WNW 1 mph 2 mph 80 % 0 in
02:22 66 °F 60.4 °F 30 in Calm   2 mph 82 % 0 in
02:27 65.7 °F 60.1 °F 30 in WNW 1 mph 2 mph 82 % 0 in
02:32 65.1 °F 59.9 °F 30 in WNW 1 mph 2 mph 83 % 0 in
02:42 65.1 °F 60.1 °F 30 in WNW 2 mph 2 mph 84 % 0 in
02:47 64.9 °F 59.7 °F 30 in West 2 mph 2 mph 83 % 0 in
02:52 64.8 °F 59.9 °F 30 in WNW 1 mph 2 mph 84 % 0 in
03:12 65.1 °F 59.5 °F 30 in Calm   2 mph 82 % 0 in
03:17 64.9 °F 59.4 °F 30 in NNW 1 mph 1 mph 82 % 0 in
03:22 64.8 °F 59.5 °F 30 in Calm   1 mph 83 % 0 in
03:32 64.4 °F 59.2 °F 30 in Calm   1 mph 83 % 0 in
03:42 64 °F 59.2 °F 30 in WNW 1 mph 1 mph 84 % 0 in
03:47 64.2 °F 59 °F 30 in SW 1 mph 2 mph 83 % 0 in
03:52 64.2 °F 58.6 °F 30 in Calm   2 mph 82 % 0 in
03:57 64 °F 58.5 °F 30 in Calm   2 mph 82 % 0 in
04:02 64.2 °F 59 °F 30 in Calm   2 mph 83 % 0 in
04:07 64.6 °F 59 °F 30 in Calm   2 mph 82 % 0 in
04:12 64.8 °F 58.8 °F 30 in Calm   2 mph 81 % 0 in
04:17 65.7 °F 59 °F 30 in Calm   2 mph 79 % 0 in
04:22 65.8 °F 58.8 °F 30 in Calm   2 mph 78 % 0 in
04:32 65.1 °F 58.5 °F 30 in Calm   2 mph 79 % 0 in
04:37 64.9 °F 58.6 °F 30 in Calm   1 mph 80 % 0 in
04:42 64.6 °F 58.3 °F 30 in Calm   1 mph 80 % 0 in
04:47 64 °F 58.5 °F 30 in Calm   1 mph 82 % 0 in
04:57 63.7 °F 58.1 °F 30 in Calm   1 mph 82 % 0 in
05:07 63.3 °F 58.1 °F 30 in SW 1 mph 1 mph 83 % 0 in
05:12 63.9 °F 58.3 °F 30 in SSW 2 mph 2 mph 82 % 0 in
05:22 63.9 °F 57.9 °F 30 in WSW 1 mph 3 mph 81 % 0 in
05:32 63.9 °F 58.6 °F 30 in Calm   3 mph 83 % 0 in
05:42 65.5 °F 60.4 °F 30 in West 3 mph 4 mph 84 % 0 in
05:52 65.8 °F 62.4 °F 30 in West 10 mph 11 mph 89 % 0 in
05:57 65.8 °F 62.8 °F 30 in WNW 8 mph 12 mph 90 % 0 in
06:02 66 °F 63.3 °F 30 in WSW 6 mph 12 mph 91 % 0 in
06:12 66.4 °F 63.7 °F 30 in West 6 mph 15 mph 91 % 0 in
06:17 66.4 °F 64 °F 30 in West 7 mph 13 mph 92 % 0 in
06:22 66.4 °F 64 °F 30 in WSW 6 mph 13 mph 92 % 0 in
06:32 66.6 °F 63.9 °F 30 in WSW 2 mph 12 mph 91 % 0 in
06:42 66.7 °F 64 °F 30 in West 6 mph 11 mph 91 % 0 in
06:52 66.7 °F 63.7 °F 30 in WNW 5 mph 10 mph 90 % 0 in
07:02 66.7 °F 63.7 °F 30 in WNW 5 mph 17 mph 90 % 0 in
07:12 66.9 °F 63.9 °F 30 in SW 6 mph 13 mph 90 % 0 in
07:17 66.9 °F 63.5 °F 30 in West 4 mph 11 mph 89 % 0 in
07:22 66.9 °F 63.5 °F 30 in WNW 3 mph 11 mph 89 % 0 in
07:32 66.9 °F 63.3 °F 30 in West 7 mph 11 mph 88 % 0 in
07:42 66.7 °F 62.8 °F 30 in West 6 mph 13 mph 87 % 0 in
07:47 66.7 °F 62.8 °F 30 in SW 5 mph 17 mph 87 % 0 in
07:57 66.9 °F 63 °F 30 in WSW 3 mph 17 mph 87 % 0 in
08:02 66.9 °F 63 °F 30 in SW 3 mph 17 mph 87 % 0 in
08:07 66.9 °F 63 °F 30 in WSW 6 mph 17 mph 87 % 0 in
08:17 66.9 °F 63 °F 30 in SW 5 mph 14 mph 87 % 0 in
08:22 66.9 °F 63 °F 30 in SW 2 mph 14 mph 87 % 0 in
08:32 67.1 °F 62.8 °F 30 in SW 6 mph 13 mph 86 % 0 in
08:42 67.5 °F 62.8 °F 30 in SSW 5 mph 17 mph 85 % 0 in
08:47 67.8 °F 62.8 °F 30 in West 8 mph 14 mph 84 % 0 in
08:52 67.8 °F 62.4 °F 30 in SSE 5 mph 14 mph 83 % 0 in
09:02 68.4 °F 62.6 °F 30 in SSW 5 mph 14 mph 82 % 0 in
09:12 68.4 °F 62.6 °F 30 in WSW 10 mph 15 mph 82 % 0 in
09:17 68.5 °F 62.8 °F 30 in WSW 10 mph 18 mph 82 % 0 in
09:22 68.4 °F 62.6 °F 30 in SW 8 mph 18 mph 82 % 0 in
09:32 68.5 °F 63.1 °F 30 in South 4 mph 17 mph 83 % 0 in
09:42 68.7 °F 63 °F 30 in WSW 7 mph 16 mph 82 % 0 in
09:52 68.5 °F 62.8 °F 30.1 in WSW 10 mph 13 mph 82 % 0 in
09:57 68.5 °F 62.8 °F 30 in WSW 9 mph 18 mph 82 % 0 in
10:02 68.4 °F 62.6 °F 30.1 in SSW 3 mph 18 mph 82 % 0 in
10:07 68.5 °F 62.8 °F 30.1 in WSW 2 mph 16 mph 82 % 0 in
10:12 68.5 °F 62.8 °F 30.1 in SW 10 mph 16 mph 82 % 0 in
10:17 68.5 °F 62.8 °F 30.1 in West 11 mph 14 mph 82 % 0 in
10:22 68.4 °F 62.6 °F 30.1 in SSW 5 mph 14 mph 82 % 0 in
10:32 68.4 °F 62.6 °F 30.1 in West 7 mph 15 mph 82 % 0 in
10:42 68.4 °F 62.6 °F 30.1 in WSW 4 mph 14 mph 82 % 0 in
10:47 68.5 °F 62.8 °F 30.1 in West 4 mph 12 mph 82 % 0 in
10:52 68.5 °F 62.4 °F 30.1 in WSW 6 mph 12 mph 81 % 0 in
11:02 68.5 °F 62.4 °F 30.1 in WSW 3 mph 10 mph 81 % 0 in
11:12 68.7 °F 62.6 °F 30.1 in SW 9 mph 10 mph 81 % 0 in
11:17 68.9 °F 62.8 °F 30.1 in West 3 mph 12 mph 81 % 0 in
11:22 69.1 °F 63 °F 30.1 in WSW 7 mph 12 mph 81 % 0 in
11:32 69.3 °F 62.8 °F 30.1 in WSW 4 mph 12 mph 80 % 0 in
11:42 69.3 °F 62.4 °F 30.1 in WSW 8 mph 14 mph 79 % 0 in
11:52 69.4 °F 62.6 °F 30.1 in WSW 8 mph 15 mph 79 % 0 in
12:02 69.6 °F 62.8 °F 30.1 in SSW 7 mph 14 mph 79 % 0 in
12:12 69.8 °F 62.6 °F 30.1 in WSW 9 mph 13 mph 78 % 0 in
12:17 70.2 °F 63 °F 30.1 in South 3 mph 16 mph 78 % 0 in
12:22 70.3 °F 62.8 °F 30.1 in WSW 8 mph 16 mph 77 % 0 in
12:32 70.9 °F 63.3 °F 30.1 in SW 7 mph 16 mph 77 % 0 in
12:42 71.1 °F 63.1 °F 30.1 in West 4 mph 13 mph 76 % 0 in
12:52 71.8 °F 63.5 °F 30.1 in SW 10 mph 16 mph 75 % 0 in
13:02 72 °F 63.1 °F 30.1 in SW 12 mph 12 mph 74 % 0 in
13:07 72.1 °F 63.3 °F 30.1 in West 7 mph 16 mph 74 % 0 in
13:12 72.7 °F 63.5 °F 30.1 in West 6 mph 16 mph 73 % 0 in
13:22 73.8 °F 64.2 °F 30.1 in West 6 mph 14 mph 72 % 0 in
13:32 74.5 °F 64 °F 30.1 in West 5 mph 13 mph 70 % 0 in
13:42 75.4 °F 64 °F 30.1 in WSW 6 mph 13 mph 68 % 0 in
13:52 75.9 °F 63.7 °F 30.1 in West 9 mph 14 mph 66 % 0 in
14:02 76.8 °F 64.6 °F 30.1 in SW 10 mph 14 mph 66 % 0 in
14:07 76.6 °F 64.9 °F 30.1 in West 7 mph 14 mph 67 % 0 in
14:12 76.8 °F 64.9 °F 30.1 in SW 5 mph 14 mph 67 % 0 in
14:17 77.2 °F 64.6 °F 30.1 in WNW 6 mph 13 mph 65 % 0 in
14:22 77 °F 64.8 °F 30.1 in West 7 mph 13 mph 66 % 0 in
14:27 77.4 °F 64.8 °F 30.1 in WSW 10 mph 13 mph 65 % 0 in
14:32 77.2 °F 64.9 °F 30.1 in West 10 mph 13 mph 66 % 0 in
14:37 77.4 °F 65.1 °F 30.1 in WSW 6 mph 15 mph 66 % 0 in
14:42 77.5 °F 64.8 °F 30.1 in SW 8 mph 15 mph 65 % 0 in
14:52 77.7 °F 64.9 °F 30.1 in WSW 4 mph 15 mph 65 % 0 in
14:57 77.9 °F 65.1 °F 30.1 in WNW 7 mph 15 mph 65 % 0 in
15:02 78.1 °F 65.3 °F 30.1 in WSW 8 mph 15 mph 65 % 0 in
15:12 77.9 °F 65.1 °F 30.1 in West 8 mph 15 mph 65 % 0 in
15:17 78.4 °F 65.7 °F 30.1 in West 8 mph 13 mph 65 % 0 in
15:22 78.4 °F 65.3 °F 30.1 in WSW 7 mph 13 mph 64 % 0 in
15:32 78.4 °F 65.3 °F 30.1 in WNW 7 mph 13 mph 64 % 0 in
15:37 78.4 °F 65.3 °F 30.1 in West 8 mph 12 mph 64 % 0 in
15:42 78.4 °F 65.3 °F 30.1 in SW 3 mph 12 mph 64 % 0 in
15:47 78.4 °F 65.3 °F 30.1 in WNW 4 mph 11 mph 64 % 0 in
15:52 78.8 °F 65.1 °F 30.1 in West 9 mph 11 mph 63 % 0 in
15:57 78.8 °F 65.7 °F 30.1 in WNW 4 mph 11 mph 64 % 0 in
16:02 79.2 °F 65.5 °F 30.1 in WNW 7 mph 11 mph 63 % 0 in
16:12 79.2 °F 65.5 °F 30.1 in West 5 mph 13 mph 63 % 0 in
16:17 79 °F 65.8 °F 30.1 in West 6 mph 13 mph 64 % 0 in
16:22 78.8 °F 65.7 °F 30.1 in West 8 mph 13 mph 64 % 0 in
16:32 78.8 °F 65.1 °F 30.1 in West 7 mph 13 mph 63 % 0 in
16:42 78.6 °F 65.5 °F 30.1 in SW 12 mph 13 mph 64 % 0 in
16:47 78.4 °F 65.7 °F 30.1 in West 6 mph 14 mph 65 % 0 in
16:52 79 °F 65.8 °F 30.1 in WNW 9 mph 14 mph 64 % 0 in
17:02 79 °F 64.8 °F 30.1 in WSW 6 mph 14 mph 62 % 0 in
17:12 79.3 °F 65.7 °F 30 in NW 4 mph 13 mph 63 % 0 in
17:17 79.2 °F 65.5 °F 30 in WSW 2 mph 10 mph 63 % 0 in
17:22 79.2 °F 65.5 °F 30.1 in West 5 mph 10 mph 63 % 0 in
17:27 79.2 °F 65.8 °F 30 in WSW 5 mph 10 mph 64 % 0 in
17:32 79.3 °F 66 °F 30 in West 3 mph 10 mph 64 % 0 in
17:37 79.5 °F 65.3 °F 30.1 in WSW 4 mph 10 mph 62 % 0 in
17:42 79.3 °F 65.7 °F 30.1 in WNW 5 mph 10 mph 63 % 0 in
17:47 79.3 °F 65.1 °F 30.1 in WSW 3 mph 9 mph 62 % 0 in
17:52 79.2 °F 65.5 °F 30.1 in WSW 3 mph 9 mph 63 % 0 in
17:57 79.3 °F 65.7 °F 30.1 in West 2 mph 8 mph 63 % 0 in
18:02 79.2 °F 65.5 °F 30.1 in WNW 4 mph 8 mph 63 % 0 in
18:07 79.2 °F 65.5 °F 30.1 in NW 4 mph 8 mph 63 % 0 in
18:12 79.2 °F 65.8 °F 30.1 in West 6 mph 8 mph 64 % 0 in
18:17 79 °F 65.3 °F 30.1 in WNW 3 mph 9 mph 63 % 0 in
18:22 78.8 °F 65.1 °F 30.1 in WNW 1 mph 9 mph 63 % 0 in
18:32 79.5 °F 65.3 °F 30 in WSW 4 mph 8 mph 62 % 0 in
18:37 79.5 °F 65.3 °F 30 in WNW 3 mph 8 mph 62 % 0 in
18:42 79.7 °F 66 °F 30 in WNW 5 mph 7 mph 63 % 0 in
18:52 80.1 °F 65.5 °F 30.1 in North 2 mph 8 mph 61 % 0 in
18:57 80.1 °F 65.5 °F 30 in WNW 5 mph 6 mph 61 % 0 in
19:02 79.9 °F 64.8 °F 30 in NW 3 mph 6 mph 60 % 0 in
19:12 79.3 °F 64.8 °F 30.1 in NW 4 mph 7 mph 61 % 0 in
19:17 79.5 °F 65.3 °F 30.1 in NW 1 mph 7 mph 62 % 0 in
19:22 79.5 °F 65.3 °F 30.1 in WNW 2 mph 7 mph 62 % 0 in
19:32 79.2 °F 64.6 °F 30.1 in WSW 6 mph 7 mph 61 % 0 in
19:37 79 °F 64.8 °F 30.1 in West 5 mph 8 mph 62 % 0 in
19:42 78.6 °F 64.6 °F 30.1 in WNW 4 mph 8 mph 62 % 0 in
19:47 78.6 °F 64.6 °F 30.1 in WNW 1 mph 9 mph 62 % 0 in
19:52 78.8 °F 64.8 °F 30.1 in NW 3 mph 9 mph 62 % 0 in
19:57 78.3 °F 64.2 °F 30.1 in WNW 6 mph 9 mph 62 % 0 in
20:02 77.9 °F 64.2 °F 30.1 in WNW 2 mph 9 mph 63 % 0 in
20:12 77.2 °F 64.6 °F 30.1 in West 1 mph 9 mph 65 % 0 in
20:17 76.6 °F 64.4 °F 30.1 in West 1 mph 6 mph 66 % 0 in
20:27 75.6 °F 63.9 °F 30.1 in WNW 2 mph 5 mph 67 % 0 in
20:32 75.2 °F 63.9 °F 30.1 in WNW 2 mph 5 mph 68 % 0 in
20:37 74.8 °F 64 °F 30.1 in WNW 1 mph 5 mph 69 % 0 in
20:42 74.5 °F 63.7 °F 30.1 in WNW 2 mph 5 mph 69 % 0 in
20:47 73.9 °F 63.5 °F 30.1 in Calm   3 mph 70 % 0 in
20:52 73.8 °F 63.3 °F 30.1 in NW 1 mph 3 mph 70 % 0 in
20:57 73.2 °F 63.3 °F 30.1 in WNW 3 mph 3 mph 71 % 0 in
21:02 72.9 °F 63.3 °F 30.1 in NW 1 mph 3 mph 72 % 0 in
21:07 72.5 °F 63 °F 30.1 in WNW 3 mph 3 mph 72 % 0 in
21:12 72.3 °F 62.8 °F 30.1 in WNW 1 mph 3 mph 72 % 0 in
21:17 72.1 °F 62.6 °F 30.1 in Calm   4 mph 72 % 0 in
21:22 72 °F 62.8 °F 30.1 in WNW 1 mph 4 mph 73 % 0 in
21:32 71.6 °F 63 °F 30.1 in Calm   3 mph 74 % 0 in
21:37 71.2 °F 62.6 °F 30.1 in North 1 mph 4 mph 74 % 0 in
21:42 71.1 °F 62.8 °F 30.1 in Calm   4 mph 75 % 0 in
21:47 70.9 °F 62.6 °F 30.1 in Calm   3 mph 75 % 0 in
21:52 70.5 °F 62.6 °F 30.1 in NNW 1 mph 3 mph 76 % 0 in
21:57 70.3 °F 62.4 °F 30.1 in North 1 mph 2 mph 76 % 0 in
22:02 70.2 °F 62.6 °F 30.1 in North 2 mph 2 mph 77 % 0 in
22:07 70.2 °F 62.6 °F 30.1 in NNW 1 mph 2 mph 77 % 0 in
22:12 70.2 °F 62.6 °F 30.1 in North 1 mph 2 mph 77 % 0 in
22:17 70.2 °F 62.6 °F 30.1 in North 1 mph 2 mph 77 % 0 in
22:22 70 °F 62.4 °F 30.1 in Calm   2 mph 77 % 0 in
22:27 69.6 °F 62.4 °F 30.1 in Calm   2 mph 78 % 0 in
22:32 69.3 °F 62.1 °F 30.1 in Calm   2 mph 78 % 0 in
22:37 68.7 °F 61.9 °F 30.1 in Calm   1 mph 79 % 0 in
22:42 68.5 °F 62.1 °F 30.1 in Calm   1 mph 80 % 0 in
22:47 68.5 °F 62.1 °F 30.1 in Calm   1 mph 80 % 0 in
22:52 68.5 °F 62.1 °F 30.1 in NNW 1 mph 1 mph 80 % 0 in
23:02 68 °F 61.9 °F 30.1 in Calm   1 mph 81 % 0 in
23:12 67.8 °F 62.1 °F 30.1 in NNW 1 mph 1 mph 82 % 0 in
23:17 67.8 °F 61.7 °F 30.1 in NNW 1 mph 2 mph 81 % 0 in
23:22 67.6 °F 61.5 °F 30.1 in Calm   2 mph 81 % 0 in
23:27 67.5 °F 61.7 °F 30.1 in Calm   1 mph 82 % 0 in
23:32 66.9 °F 61.2 °F 30.1 in Calm   1 mph 82 % 0 in
23:37 66.6 °F 61.5 °F 30.1 in Calm   1 mph 84 % 0 in
23:42 66.6 °F 61.5 °F 30.1 in Calm   1 mph 84 % 0 in
23:47 66.2 °F 61.2 °F 30.1 in NW 1 mph 1 mph 84 % 0 in
23:52 66.2 °F 61.5 °F 30.1 in Calm   1 mph 85 % 0 in
23:57 65.8 °F 60.8 °F 30.1 in Calm   1 mph 84 % 0 in
Meteo18
Compliments of Weather Underground - 4 mb

Script developed by  Jim McMurry - jmcmurry@mwt.net Adapted for the template by  Wim van der Kuil - Leuven-Template.eu

You find our weather info also at:

European Weather Network

Weather Underground

Equipment we use:

Weather-station
Davis Vue

Weather-program
Meteohub

Weather-server
Raspberry PI 2 B+

Provider
1 and 1

Davis Vue

Meteohub

Raspberry PI 2 B+

1 and 1